Time;durP1;ratioP1;P1;durP2;ratioP2;P2;SDS_P1;SDS_P2;PMS_P1;PMS_P2;Temp;Humidity;BMP_temperature;BMP_pressure;BME280_temperature;BME280_humidity;BME280_pressure;Samples;Min_cycle;Max_cycle;Signal;HPM_P1;HPM_P2
2023/04/27 00:01:06;;;;;;;;;;;;;;;6.78;54.94;98131.03;5086547;28;19948;-68
2023/04/27 00:03:55;;;;;;;;;;;;;;;6.69;54.78;98133.50;5072351;28;19989;-68
2023/04/27 00:06:44;;;;;;;;;;;;;;;6.70;54.89;98129.72;5073627;28;19958;-67
2023/04/27 00:09:32;;;;;;;;;;;;;;;6.68;54.82;98126.50;5080571;28;20441;-67
2023/04/27 00:12:20;;;;;;;;;;;;;;;6.67;54.63;98130.28;5078445;28;20386;-68
2023/04/27 00:15:10;;;;;;;;;;;;;;;6.77;54.90;98132.91;5075746;28;20414;-67
2023/04/27 00:17:58;;;;;;;;;;;;;;;6.77;54.81;98130.22;5080435;28;19961;-67
2023/04/27 00:20:49;;;;;;;;;;;;;;;6.78;54.46;98125.63;5066863;28;19946;-67
2023/04/27 00:23:38;;;;;;;;;;;;;;;6.73;54.03;98121.06;5066690;28;19935;-67
2023/04/27 00:26:26;;;;;;;;;;;;;;;6.66;54.16;98123.28;5083344;28;19934;-67
2023/04/27 00:29:15;;;;;;;;;;;;;;;6.63;54.02;98115.72;5070483;28;19980;-66
2023/04/27 00:32:06;;;;;;;;;;;;;;;6.57;54.05;98108.75;5069887;28;19969;-67
2023/04/27 00:34:54;;;;;;;;;;;;;;;6.49;54.22;98106.63;5086271;28;19939;-67
2023/04/27 00:37:42;;;;;;;;;;;;;;;6.55;54.44;98106.34;5081549;28;19957;-67
2023/04/27 00:40:31;;;;;;;;;;;;;;;6.57;54.62;98103.34;5067690;28;20524;-69
2023/04/27 00:43:19;;;;;;;;;;;;;;;6.49;54.64;98106.63;5070552;28;19924;-67
2023/04/27 00:46:07;;;;;;;;;;;;;;;6.56;54.90;98112.53;5068023;28;20431;-66
2023/04/27 00:48:56;;;;;;;;;;;;;;;6.56;54.48;98107.16;5081138;28;19958;-67
2023/04/27 00:51:45;;;;;;;;;;;;;;;6.60;54.49;98104.69;5078629;28;19935;-66
2023/04/27 00:54:33;;;;;;;;;;;;;;;6.59;54.54;98106.56;5070086;28;20029;-67
2023/04/27 00:57:22;;;;;;;;;;;;;;;6.63;54.97;98107.63;5080573;28;19937;-69
2023/04/27 01:00:10;;;;;;;;;;;;;;;6.59;55.31;98106.56;5064669;28;19968;-67
2023/04/27 01:03:01;;;;;;;;;;;;;;;6.63;55.24;98101.44;5079383;28;19930;-67
2023/04/27 01:05:50;;;;;;;;;;;;;;;6.67;54.92;98105.19;5074546;28;20092;-67
2023/04/27 01:08:39;;;;;;;;;;;;;;;6.53;55.19;98108.50;5079953;28;19992;-67
2023/04/27 01:11:27;;;;;;;;;;;;;;;6.41;55.67;98107.25;5060518;28;20402;-67
2023/04/27 01:14:16;;;;;;;;;;;;;;;6.35;55.47;98090.28;5081361;28;19943;-66
2023/04/27 01:17:04;;;;;;;;;;;;;;;6.40;56.07;98103.72;5080810;28;20441;-67
2023/04/27 01:19:54;;;;;;;;;;;;;;;6.34;55.89;98106.72;5069684;28;20453;-67
2023/04/27 01:22:43;;;;;;;;;;;;;;;6.28;56.32;98098.69;5072402;28;20060;-67
2023/04/27 01:25:33;;;;;;;;;;;;;;;6.22;56.49;98107.88;5083233;28;20034;-67
2023/04/27 01:28:22;;;;;;;;;;;;;;;6.19;56.95;98107.63;5075358;28;19946;-67
2023/04/27 01:31:13;;;;;;;;;;;;;;;6.20;56.81;98104.66;5083271;28;20299;-66
2023/04/27 01:34:02;;;;;;;;;;;;;;;6.16;56.72;98111.69;5084146;28;19935;-66
2023/04/27 01:36:50;;;;;;;;;;;;;;;6.19;56.73;98105.75;5076856;28;20381;-66
2023/04/27 01:39:41;;;;;;;;;;;;;;;6.40;56.35;98106.44;5067561;28;20316;-66
2023/04/27 01:42:31;;;;;;;;;;;;;;;6.20;56.07;98110.03;5078418;28;19920;-66
2023/04/27 01:45:20;;;;;;;;;;;;;;;6.07;56.52;98105.25;5074857;28;19931;-66
2023/04/27 01:48:08;;;;;;;;;;;;;;;6.05;56.58;98107.41;5078372;28;19920;-67
2023/04/27 01:50:56;;;;;;;;;;;;;;;6.08;56.19;98106.06;5083386;28;19928;-66
2023/04/27 01:53:44;;;;;;;;;;;;;;;5.93;56.61;98115.03;5072554;28;20564;-66
2023/04/27 01:56:33;;;;;;;;;;;;;;;6.02;56.71;98113.38;5082299;28;20481;-66
2023/04/27 01:59:25;;;;;;;;;;;;;;;5.98;56.82;98104.22;5079531;28;19926;-68
2023/04/27 02:02:14;;;;;;;;;;;;;;;5.92;56.89;98116.91;5077704;28;20045;-66
2023/04/27 02:05:02;;;;;;;;;;;;;;;5.89;57.29;98113.94;5067046;28;19942;-66
2023/04/27 02:07:50;;;;;;;;;;;;;;;5.87;57.51;98110.72;5082957;28;19920;-66
2023/04/27 02:10:38;;;;;;;;;;;;;;;5.89;57.36;98111.22;5076843;28;19935;-66
2023/04/27 02:13:27;;;;;;;;;;;;;;;5.96;57.46;98107.19;5073363;28;20292;-66
2023/04/27 02:16:16;;;;;;;;;;;;;;;5.94;57.82;98114.75;5064948;28;19975;-66
2023/04/27 02:19:05;;;;;;;;;;;;;;;5.85;57.95;98108.28;5068121;28;19931;-67
2023/04/27 02:21:53;;;;;;;;;;;;;;;5.82;58.15;98108.03;5076754;28;19966;-66
2023/04/27 02:24:42;;;;;;;;;;;;;;;5.76;58.49;98116.13;5072910;28;19951;-67
2023/04/27 02:27:30;;;;;;;;;;;;;;;5.85;58.84;98110.16;5080109;28;19924;-66
2023/04/27 02:30:18;;;;;;;;;;;;;;;5.91;58.06;98111.75;5065246;28;19920;-66
2023/04/27 02:33:07;;;;;;;;;;;;;;;5.95;58.01;98110.16;5068285;28;19931;-66
2023/04/27 02:35:58;;;;;;;;;;;;;;;5.96;57.95;98112.56;5076844;28;19965;-66
2023/04/27 02:38:48;;;;;;;;;;;;;;;5.86;57.96;98119.88;5064024;28;20594;-66
2023/04/27 02:41:36;;;;;;;;;;;;;;;5.90;57.83;98115.53;5080733;28;19932;-67
2023/04/27 02:44:24;;;;;;;;;;;;;;;5.97;57.65;98122.28;5067999;28;19920;-66
2023/04/27 02:47:12;;;;;;;;;;;;;;;5.92;57.85;98113.44;5068373;28;20023;-66
2023/04/27 02:50:04;;;;;;;;;;;;;;;5.85;57.93;98118.25;5076683;28;19947;-67
2023/04/27 02:52:54;;;;;;;;;;;;;;;5.90;57.86;98115.53;5067328;28;20526;-66
2023/04/27 02:55:45;;;;;;;;;;;;;;;5.86;58.05;98123.41;5078000;28;19951;-66
2023/04/27 02:58:33;;;;;;;;;;;;;;;5.83;58.10;98115.84;5066636;28;20319;-66
2023/04/27 03:01:22;;;;;;;;;;;;;;;5.71;58.21;98118.03;5081115;28;19920;-67
2023/04/27 03:04:12;;;;;;;;;;;;;;;5.63;58.65;98122.09;5072134;28;19932;-66
2023/04/27 03:07:03;;;;;;;;;;;;;;;5.63;58.81;98126.69;5082690;28;19920;-66
2023/04/27 03:09:51;;;;;;;;;;;;;;;5.61;58.91;98129.66;5062234;28;20557;-66
2023/04/27 03:12:39;;;;;;;;;;;;;;;5.58;58.95;98124.81;5071846;28;19927;-66
2023/04/27 03:15:28;;;;;;;;;;;;;;;5.67;58.56;98123.16;5075837;28;19971;-66
2023/04/27 03:18:16;;;;;;;;;;;;;;;5.58;58.64;98122.09;5066642;28;19932;-66
2023/04/27 03:21:07;;;;;;;;;;;;;;;5.62;59.12;98125.88;5082024;28;20475;-67
2023/04/27 03:23:57;;;;;;;;;;;;;;;5.53;59.27;98122.91;5076411;28;19928;-66
2023/04/27 03:26:45;;;;;;;;;;;;;;;5.51;59.64;98127.00;5076030;28;19932;-66
2023/04/27 03:29:33;;;;;;;;;;;;;;;5.48;59.49;98130.22;5061532;28;19979;-66
2023/04/27 03:32:21;;;;;;;;;;;;;;;5.54;59.95;98134.53;5065250;28;20022;-66
2023/04/27 03:35:09;;;;;;;;;;;;;;;5.41;60.34;98129.69;5077777;28;20440;-66
2023/04/27 03:38:00;;;;;;;;;;;;;;;5.35;60.42;98136.19;5078554;28;19965;-70
2023/04/27 03:40:51;;;;;;;;;;;;;;;5.41;60.68;98135.09;5066186;28;19921;-66
2023/04/27 03:43:39;;;;;;;;;;;;;;;5.56;60.32;98136.94;5065595;28;20026;-66
2023/04/27 03:46:27;;;;;;;;;;;;;;;5.55;60.35;98143.44;5066089;28;19924;-66
2023/04/27 03:49:16;;;;;;;;;;;;;;;5.51;60.49;98149.34;5076044;28;20367;-66
2023/04/27 03:52:04;;;;;;;;;;;;;;;5.47;60.92;98145.56;5065881;28;19924;-67
2023/04/27 03:54:54;;;;;;;;;;;;;;;5.48;60.50;98147.19;5065514;28;20338;-66
2023/04/27 03:57:47;;;;;;;;;;;;;;;5.49;60.23;98154.22;5064409;28;19931;-66
2023/04/27 04:00:36;;;;;;;;;;;;;;;5.51;60.74;98160.13;5077556;28;20367;-66
2023/04/27 04:03:24;;;;;;;;;;;;;;;5.51;60.73;98157.44;5078112;28;20345;-67
2023/04/27 04:06:13;;;;;;;;;;;;;;;5.44;60.57;98158.81;5068268;28;19920;-67
2023/04/27 04:09:02;;;;;;;;;;;;;;;5.41;61.06;98153.94;5078888;28;19935;-66
2023/04/27 04:11:51;;;;;;;;;;;;;;;5.58;60.25;98165.22;5075631;28;19920;-67
2023/04/27 04:14:41;;;;;;;;;;;;;;;5.60;60.49;98168.47;5062716;28;20288;-66
2023/04/27 04:17:30;;;;;;;;;;;;;;;5.50;60.55;98160.41;5076217;28;19963;-66
2023/04/27 04:20:18;;;;;;;;;;;;;;;5.50;60.83;98149.63;5065021;28;19993;-67
2023/04/27 04:23:06;;;;;;;;;;;;;;;5.48;61.05;98151.78;5074431;28;20006;-67
2023/04/27 04:25:55;;;;;;;;;;;;;;;5.50;61.02;98145.03;5065843;28;19924;-66
2023/04/27 04:28:44;;;;;;;;;;;;;;;5.49;61.22;98146.13;5064012;28;19927;-66
2023/04/27 04:31:34;;;;;;;;;;;;;;;5.55;61.24;98136.16;5076648;28;20439;-66
2023/04/27 04:34:22;;;;;;;;;;;;;;;5.72;60.69;98146.63;5079087;28;19995;-66
2023/04/27 04:37:10;;;;;;;;;;;;;;;5.72;60.86;98143.91;5069541;28;19931;-66
2023/04/27 04:39:58;;;;;;;;;;;;;;;5.81;60.04;98149.56;5079337;28;19935;-66
2023/04/27 04:42:47;;;;;;;;;;;;;;;5.90;59.51;98153.28;5079718;28;20099;-66
2023/04/27 04:45:35;;;;;;;;;;;;;;;5.88;59.33;98156.28;5078648;28;20068;-66
2023/04/27 04:48:25;;;;;;;;;;;;;;;5.92;59.52;98156.56;5060344;28;19927;-65
2023/04/27 04:51:13;;;;;;;;;;;;;;;5.94;59.11;98159.78;5059800;28;20015;-66
2023/04/27 04:54:01;;;;;;;;;;;;;;;5.94;59.31;98159.78;5059685;28;20430;-65
2023/04/27 04:56:49;;;;;;;;;;;;;;;5.97;59.17;98159.25;5053638;28;20073;-65
2023/04/27 04:59:37;;;;;;;;;;;;;;;6.03;59.02;98156.25;5033002;28;20583;-65
2023/04/27 05:02:25;;;;;;;;;;;;;;;6.06;59.03;98149.47;5044848;28;20262;-70
2023/04/27 05:05:15;;;;;;;;;;;;;;;6.07;59.12;98158.38;5051758;28;19931;-65
2023/04/27 05:08:03;;;;;;;;;;;;;;;6.09;59.41;98162.44;5064132;28;19946;-65
2023/04/27 05:10:52;;;;;;;;;;;;;;;6.15;58.26;98160.53;5079745;28;19924;-67
2023/04/27 05:13:40;;;;;;;;;;;;;;;6.16;58.17;98157.53;5058703;28;20017;-66
2023/04/27 05:16:28;;;;;;;;;;;;;;;6.21;58.46;98154.81;5057409;28;20406;-66
2023/04/27 05:19:17;;;;;;;;;;;;;;;6.25;58.57;98160.47;5044705;28;19938;-65
2023/04/27 05:22:09;;;;;;;;;;;;;;;6.27;58.39;98164.50;5052535;28;20015;-67
2023/04/27 05:24:58;;;;;;;;;;;;;;;6.34;58.89;98163.38;5049411;28;20363;-66
2023/04/27 05:27:46;;;;;;;;;;;;;;;6.29;58.12;98172.34;5052065;28;19950;-66
2023/04/27 05:30:34;;;;;;;;;;;;;;;6.65;57.09;98172.94;5061020;28;20381;-66
2023/04/27 05:33:22;;;;;;;;;;;;;;;6.45;57.56;98176.56;5050912;28;20023;-66
2023/04/27 05:36:10;;;;;;;;;;;;;;;6.60;57.43;98175.66;5060536;28;19932;-66
2023/04/27 05:39:00;;;;;;;;;;;;;;;6.59;57.49;98186.75;5062123;28;19925;-66
2023/04/27 05:41:48;;;;;;;;;;;;;;;6.65;57.67;98189.13;5054262;28;20289;-66
2023/04/27 05:44:36;;;;;;;;;;;;;;;6.62;57.37;98189.72;5062302;28;19930;-66
2023/04/27 05:47:24;;;;;;;;;;;;;;;6.75;57.25;98183.69;5055560;28;19931;-66
2023/04/27 05:50:12;;;;;;;;;;;;;;;6.77;56.81;98184.22;5057738;28;20046;-66
2023/04/27 05:53:01;;;;;;;;;;;;;;;6.77;56.59;98188.81;5045247;28;20329;-66
2023/04/27 05:55:50;;;;;;;;;;;;;;;6.81;57.07;98192.56;5048056;28;19924;-67
2023/04/27 05:58:38;;;;;;;;;;;;;;;6.91;56.72;98194.38;5045422;28;19925;-66
2023/04/27 06:01:26;;;;;;;;;;;;;;;6.95;56.50;98195.44;5059219;28;19921;-67
2023/04/27 06:04:15;;;;;;;;;;;;;;;7.04;56.42;98188.38;5060055;28;19981;-66
2023/04/27 06:07:07;;;;;;;;;;;;;;;7.23;56.26;98205.50;5058640;28;20007;-66
2023/04/27 06:09:57;;;;;;;;;;;;;;;7.41;56.10;98208.63;5044387;28;19961;-66
2023/04/27 06:12:46;;;;;;;;;;;;;;;7.35;55.31;98208.66;5060280;28;19959;-66
2023/04/27 06:15:35;;;;;;;;;;;;;;;7.24;55.24;98199.00;5060295;28;19982;-66
2023/04/27 06:18:23;;;;;;;;;;;;;;;7.30;55.02;98203.31;5055638;28;19931;-66
2023/04/27 06:21:11;;;;;;;;;;;;;;;7.44;55.14;98195.34;5061285;28;19935;-66
2023/04/27 06:23:59;;;;;;;;;;;;;;;7.64;54.79;98194.34;5043724;28;19924;-66
2023/04/27 06:26:47;;;;;;;;;;;;;;;7.77;53.65;98199.06;5061174;28;19935;-66
2023/04/27 06:29:37;;;;;;;;;;;;;;;7.88;53.36;98203.31;5063958;28;19927;-66
2023/04/27 06:32:25;;;;;;;;;;;;;;;7.99;53.35;98197.75;5048173;28;20419;-66
2023/04/27 06:35:14;;;;;;;;;;;;;;;8.19;53.01;98197.53;5069387;28;20388;-66
2023/04/27 06:38:02;;;;;;;;;;;;;;;8.30;52.60;98196.31;5056384;28;19921;-66
2023/04/27 06:40:51;;;;;;;;;;;;;;;8.37;52.03;98209.56;5043332;28;19924;-66
2023/04/27 06:43:40;;;;;;;;;;;;;;;8.52;52.00;98213.97;5053713;28;20301;-66
2023/04/27 06:46:29;;;;;;;;;;;;;;;8.54;51.48;98209.88;5061642;28;20460;-66
2023/04/27 06:49:17;;;;;;;;;;;;;;;8.59;51.27;98215.22;5027643;28;20728;-66
2023/04/27 06:52:06;;;;;;;;;;;;;;;8.63;51.26;98208.16;5034558;28;20015;-66
2023/04/27 06:54:55;;;;;;;;;;;;;;;8.63;50.55;98207.34;5045098;28;19944;-66
2023/04/27 06:57:43;;;;;;;;;;;;;;;8.69;50.00;98210.78;5032186;28;19964;-66
2023/04/27 07:00:31;;;;;;;;;;;;;;;8.80;50.76;98204.94;5043577;28;19931;-66
2023/04/27 07:03:21;;;;;;;;;;;;;;;8.65;49.71;98205.13;5028315;28;20435;-66
2023/04/27 07:06:09;;;;;;;;;;;;;;;8.62;49.79;98211.94;5039272;28;19955;-66
2023/04/27 07:08:57;;;;;;;;;;;;;;;8.74;51.11;98206.09;5027791;28;20368;-66
2023/04/27 07:11:46;;;;;;;;;;;;;;;8.95;50.27;98201.22;5033613;28;20604;-66
2023/04/27 07:14:35;;;;;;;;;;;;;;;9.18;50.31;98197.59;5026942;28;19921;-66
2023/04/27 07:17:23;;;;;;;;;;;;;;;9.26;49.61;98193.38;5032360;28;19932;-66
2023/04/27 07:20:13;;;;;;;;;;;;;;;9.31;49.23;98198.72;5031988;28;19978;-65
2023/04/27 07:23:01;;;;;;;;;;;;;;;9.47;48.45;98195.78;5039940;28;19999;-66
2023/04/27 07:25:49;;;;;;;;;;;;;;;9.61;46.62;98199.34;5051170;28;19990;-66
2023/04/27 07:28:38;;;;;;;;;;;;;;;9.80;46.55;98201.97;5027459;28;20477;-66
2023/04/27 07:31:26;;;;;;;;;;;;;;;9.80;46.55;98210.94;5025901;28;19925;-66
2023/04/27 07:34:14;;;;;;;;;;;;;;;9.84;46.53;98211.94;5033155;28;19921;-66
2023/04/27 07:37:04;;;;;;;;;;;;;;;9.86;45.42;98212.47;5035529;28;20301;-66
2023/04/27 07:39:52;;;;;;;;;;;;;;;10.01;44.75;98211.34;5038865;28;20424;-66
2023/04/27 07:42:41;;;;;;;;;;;;;;;10.15;43.90;98214.91;5036769;28;19990;-66
2023/04/27 07:45:31;;;;;;;;;;;;;;;10.19;43.24;98220.53;5032965;28;19958;-65
2023/04/27 07:48:20;;;;;;;;;;;;;;;10.32;42.95;98213.53;5040449;28;19936;-66
2023/04/27 07:51:08;;;;;;;;;;;;;;;10.36;43.05;98218.06;5082566;28;19920;-68
2023/04/27 07:53:58;;;;;;;;;;;;;;;10.60;43.05;98215.13;5083845;28;19924;-65
2023/04/27 07:56:46;;;;;;;;;;;;;;;10.82;42.43;98222.53;5081124;28;20436;-66
2023/04/27 07:59:34;;;;;;;;;;;;;;;11.04;41.66;98234.56;5062458;28;19921;-65
2023/04/27 08:02:22;;;;;;;;;;;;;;;11.14;41.86;98223.47;5085382;28;20037;-68
2023/04/27 08:05:11;;;;;;;;;;;;;;;11.26;41.48;98231.88;5070468;28;19931;-66
2023/04/27 08:07:59;;;;;;;;;;;;;;;11.48;41.20;98229.16;5089944;28;20495;-67
2023/04/27 08:10:49;;;;;;;;;;;;;;;11.52;41.23;98232.88;5075444;28;19927;-67
2023/04/27 08:13:37;;;;;;;;;;;;;;;11.53;41.13;98230.97;5084354;28;19924;-66
2023/04/27 08:16:26;;;;;;;;;;;;;;;11.63;39.91;98230.72;5082965;28;19924;-66
2023/04/27 08:19:14;;;;;;;;;;;;;;;11.69;39.98;98234.91;5081374;28;20023;-66
2023/04/27 08:22:03;;;;;;;;;;;;;;;11.69;40.01;98232.19;5086677;28;19920;-66
2023/04/27 08:24:51;;;;;;;;;;;;;;;11.86;39.60;98236.97;5075444;28;19932;-66
2023/04/27 08:27:41;;;;;;;;;;;;;;;12.07;38.77;98232.59;5082641;28;19928;-64
2023/04/27 08:30:29;;;;;;;;;;;;;;;12.28;39.36;98232.84;5074551;28;20376;-66
2023/04/27 08:33:17;;;;;;;;;;;;;;;12.36;37.92;98225.84;5081361;28;19956;-66
2023/04/27 08:36:05;;;;;;;;;;;;;;;12.49;37.50;98224.91;5092425;28;20452;-67
2023/04/27 08:38:56;;;;;;;;;;;;;;;12.47;37.92;98223.66;5081591;28;19928;-66
2023/04/27 08:41:45;;;;;;;;;;;;;;;12.68;36.28;98215.69;5079962;28;20362;-66
2023/04/27 08:44:37;;;;;;;;;;;;;;;12.75;37.10;98219.53;5082659;28;20078;-66
2023/04/27 08:47:26;;;;;;;;;;;;;;;12.76;36.69;98220.34;5077566;28;19928;-66
2023/04/27 08:50:28;;;;;;;;;;;;;;;12.76;35.71;98214.88;5083485;28;19921;-67
2023/04/27 08:53:17;;;;;;;;;;;;;;;12.92;36.85;98212.50;5085879;28;19924;-66
2023/04/27 08:56:05;;;;;;;;;;;;;;;13.07;36.15;98217.50;5082395;28;19927;-67
2023/04/27 08:58:54;;;;;;;;;;;;;;;12.84;35.05;98204.00;5082320;28;19932;-66
2023/04/27 09:01:47;;;;;;;;;;;;;;;12.89;34.92;98210.41;5084789;28;19920;-66
2023/04/27 09:04:37;;;;;;;;;;;;;;;13.17;35.50;98208.19;5077596;28;19984;-66
2023/04/27 09:07:25;;;;;;;;;;;;;;;13.49;35.21;98213.19;5064863;28;19978;-66
2023/04/27 09:10:16;;;;;;;;;;;;;;;13.53;35.84;98203.25;5078408;28;20479;-66
2023/04/27 09:13:04;;;;;;;;;;;;;;;13.59;34.88;98209.34;5068715;28;19983;-66
2023/04/27 09:15:53;;;;;;;;;;;;;;;13.63;34.95;98202.06;5083287;28;19924;-66
2023/04/27 09:18:43;;;;;;;;;;;;;;;13.86;34.60;98210.88;5080604;28;20041;-66
2023/04/27 09:21:31;;;;;;;;;;;;;;;13.81;34.04;98200.94;5082421;28;19929;-67
2023/04/27 09:24:19;;;;;;;;;;;;;;;13.76;33.63;98200.31;5077874;28;19924;-66
2023/04/27 09:27:08;;;;;;;;;;;;;;;13.77;33.35;98196.44;5084234;28;19927;-66
2023/04/27 09:29:56;;;;;;;;;;;;;;;13.61;32.91;98177.03;5086827;28;19965;-66
2023/04/27 09:32:49;;;;;;;;;;;;;;;13.61;33.35;98187.97;5067003;28;19927;-66
2023/04/27 09:35:39;;;;;;;;;;;;;;;13.83;34.37;98186.94;5083456;28;20425;-66
2023/04/27 09:38:29;;;;;;;;;;;;;;;13.71;33.05;98175.91;5077393;28;19974;-66
2023/04/27 09:41:17;;;;;;;;;;;;;;;13.71;33.16;98175.91;5079882;28;20486;-66
2023/04/27 09:44:05;;;;;;;;;;;;;;;13.75;32.94;98171.41;5078503;28;20011;-65
2023/04/27 09:46:53;;;;;;;;;;;;;;;13.88;32.49;98164.91;5081699;28;19924;-66
2023/04/27 09:49:41;;;;;;;;;;;;;;;13.94;33.48;98169.06;5083302;28;20543;-66
2023/04/27 09:52:32;;;;;;;;;;;;;;;14.06;33.28;98161.00;5080882;28;19958;-65
2023/04/27 09:55:21;;;;;;;;;;;;;;;14.15;32.98;98163.69;5085564;28;19945;-67
2023/04/27 09:58:15;;;;;;;;;;;;;;;14.01;33.05;98163.09;5052906;28;20005;-66
2023/04/27 10:01:05;;;;;;;;;;;;;;;13.97;33.04;98160.22;5078424;28;19934;-65
2023/04/27 10:03:57;;;;;;;;;;;;;;;13.89;33.07;98161.06;5084729;28;19942;-66
2023/04/27 10:06:52;;;;;;;;;;;;;;;13.98;33.34;98159.09;5079034;28;19941;-66
2023/04/27 10:09:42;;;;;;;;;;;;;;;13.99;32.79;98162.63;5083986;28;19978;-67
2023/04/27 10:12:33;;;;;;;;;;;;;;;14.00;32.88;98162.28;5078773;28;19970;-66
2023/04/27 10:15:25;;;;;;;;;;;;;;;14.14;32.52;98165.63;5075950;28;19935;-66
2023/04/27 10:18:15;;;;;;;;;;;;;;;14.26;32.55;98162.19;5083189;28;20494;-67
2023/04/27 10:21:12;;;;;;;;;;;;;;;14.32;32.94;98165.53;5078684;28;19944;-66
2023/04/27 10:24:07;;;;;;;;;;;;;;;14.58;32.88;98157.22;5065340;28;20015;-67
2023/04/27 10:27:00;;;;;;;;;;;;;;;14.49;33.03;98151.00;5064388;28;19932;-66
2023/04/27 10:29:50;;;;;;;;;;;;;;;14.51;34.02;98151.47;5082736;28;19924;-66
2023/04/27 10:32:49;;;;;;;;;;;;;;;14.42;32.67;98152.28;5078698;28;19931;-66
2023/04/27 10:35:38;;;;;;;;;;;;;;;14.52;32.95;98153.88;5060827;28;19920;-66
2023/04/27 10:38:30;;;;;;;;;;;;;;;14.51;32.57;98152.28;5082645;28;19958;-66
2023/04/27 10:41:19;;;;;;;;;;;;;;;14.90;31.28;98156.50;5066038;28;19920;-65
2023/04/27 10:44:16;;;;;;;;;;;;;;;15.26;29.76;98148.81;5080971;28;20460;-65
2023/04/27 10:47:12;;;;;;;;;;;;;;;15.50;29.34;98143.44;5075313;28;19953;-68
2023/04/27 10:50:01;;;;;;;;;;;;;;;15.41;29.11;98139.97;5082306;28;20370;-65
2023/04/27 10:52:51;;;;;;;;;;;;;;;15.48;30.05;98148.44;5076422;28;20225;-64
2023/04/27 10:55:39;;;;;;;;;;;;;;;15.42;29.97;98147.84;5078324;28;20029;-64
2023/04/27 10:58:27;;;;;;;;;;;;;;;15.46;29.81;98142.50;5077335;28;19924;-65
2023/04/27 11:01:30;;;;;;;;;;;;;;;15.65;31.33;98137.31;5075816;28;19926;-65
2023/04/27 11:04:18;;;;;;;;;;;;;;;15.81;30.74;98133.94;5078333;28;19954;-65
2023/04/27 11:07:07;;;;;;;;;;;;;;;15.79;30.06;98141.72;5064312;28;19927;-66
2023/04/27 11:09:55;;;;;;;;;;;;;;;15.75;30.39;98140.78;5079121;28;19954;-66
2023/04/27 11:12:44;;;;;;;;;;;;;;;15.39;30.49;98139.50;5077078;28;19927;-67
2023/04/27 11:15:41;;;;;;;;;;;;;;;15.15;30.53;98135.53;5060375;28;20051;-68
2023/04/27 11:18:32;;;;;;;;;;;;;;;15.11;31.03;98147.50;5075356;28;19966;-65
2023/04/27 11:21:22;;;;;;;;;;;;;;;15.16;30.89;98144.56;5073953;28;19935;-67
2023/04/27 11:24:10;;;;;;;;;;;;;;;15.19;31.02;98138.44;5068107;28;20459;-64
2023/04/27 11:27:01;;;;;;;;;;;;;;;15.34;30.98;98134.22;5067381;28;19924;-65
2023/04/27 11:29:49;;;;;;;;;;;;;;;15.22;31.15;98134.19;5079022;28;20486;-65
2023/04/27 11:32:37;;;;;;;;;;;;;;;15.13;31.84;98142.50;5078755;28;20087;-65
2023/04/27 11:35:36;;;;;;;;;;;;;;;15.14;31.17;98131.22;5064773;28;19959;-65
2023/04/27 11:38:25;;;;;;;;;;;;;;;15.11;31.25;98133.81;5075535;28;20471;-66
2023/04/27 11:41:13;;;;;;;;;;;;;;;15.08;31.47;98143.50;5082863;28;19920;-63
2023/04/27 11:44:06;;;;;;;;;;;;;;;14.99;31.75;98137.31;5080400;28;20336;-66
2023/04/27 11:47:00;;;;;;;;;;;;;;;14.79;31.57;98143.56;5076765;28;20056;-64
2023/04/27 11:49:49;;;;;;;;;;;;;;;15.01;32.74;98143.22;5078161;28;20409;-67
2023/04/27 11:52:39;;;;;;;;;;;;;;;14.99;31.55;98142.78;5085525;28;19924;-64
2023/04/27 11:55:28;;;;;;;;;;;;;;;14.72;31.42;98141.38;5088115;28;19953;-66
2023/04/27 11:58:16;;;;;;;;;;;;;;;14.54;32.10;98135.22;5081541;28;19939;-65
2023/04/27 12:01:05;;;;;;;;;;;;;;;14.48;32.32;98139.25;5079628;28;19920;-65
2023/04/27 12:03:53;;;;;;;;;;;;;;;14.32;32.58;98140.94;5074031;28;19981;-65
2023/04/27 12:06:41;;;;;;;;;;;;;;;14.49;32.43;98135.41;5084484;28;20567;-66
2023/04/27 12:09:31;;;;;;;;;;;;;;;14.60;32.53;98131.16;5079142;28;19931;-64
2023/04/27 12:12:21;;;;;;;;;;;;;;;14.63;32.85;98125.00;5076510;28;19939;-66
2023/04/27 12:15:10;;;;;;;;;;;;;;;14.72;32.82;98121.44;5084428;28;20624;-64
2023/04/27 12:17:58;;;;;;;;;;;;;;;14.60;32.90;98125.69;5069974;28;20065;-65
2023/04/27 12:20:46;;;;;;;;;;;;;;;14.96;33.53;98118.81;5075185;28;19924;-65
2023/04/27 12:23:35;;;;;;;;;;;;;;;15.09;32.80;98125.94;5072775;28;19944;-66
2023/04/27 12:26:28;;;;;;;;;;;;;;;15.35;33.32;98116.69;5086504;28;19963;-65
2023/04/27 12:29:16;;;;;;;;;;;;;;;15.37;32.88;98119.88;5083426;28;19924;-65
2023/04/27 12:32:05;;;;;;;;;;;;;;;15.36;32.81;98121.03;5080144;28;19931;-66
2023/04/27 12:34:53;;;;;;;;;;;;;;;15.46;32.82;98117.88;5083676;28;19928;-65
2023/04/27 12:37:41;;;;;;;;;;;;;;;15.42;32.34;98116.94;5085871;28;19928;-65
2023/04/27 12:40:30;;;;;;;;;;;;;;;15.38;33.12;98121.47;5082640;28;19959;-64
2023/04/27 12:43:20;;;;;;;;;;;;;;;15.49;32.75;98117.19;5069012;28;19927;-65
2023/04/27 12:46:08;;;;;;;;;;;;;;;15.57;33.35;98119.03;5076895;28;19974;-64
2023/04/27 12:48:56;;;;;;;;;;;;;;;15.51;32.84;98120.41;5070038;28;19951;-65
2023/04/27 12:51:46;;;;;;;;;;;;;;;15.43;33.12;98115.78;5074070;28;19924;-66
2023/04/27 12:54:35;;;;;;;;;;;;;;;15.42;32.56;98114.19;5068057;28;19920;-66
2023/04/27 12:57:23;;;;;;;;;;;;;;;15.36;32.60;98118.28;5078645;28;19920;-67
2023/04/27 13:00:14;;;;;;;;;;;;;;;15.48;32.63;98114.78;5073423;28;20393;-65
2023/04/27 13:03:03;;;;;;;;;;;;;;;15.47;32.56;98116.72;5080979;28;20784;-68
2023/04/27 13:05:52;;;;;;;;;;;;;;;15.63;32.55;98117.72;5082802;28;20490;-65
2023/04/27 13:08:41;;;;;;;;;;;;;;;15.50;32.41;98115.22;5083766;28;20012;-65
2023/04/27 13:11:29;;;;;;;;;;;;;;;15.34;32.75;98112.34;5074351;28;19920;-64
2023/04/27 13:14:18;;;;;;;;;;;;;;;15.37;32.76;98107.00;5059347;28;19920;-65
2023/04/27 13:17:07;;;;;;;;;;;;;;;15.48;32.98;98109.31;5082490;28;19920;-66
2023/04/27 13:19:56;;;;;;;;;;;;;;;15.56;32.74;98103.75;5079911;28;20053;-64
2023/04/27 13:22:44;;;;;;;;;;;;;;;15.73;32.55;98099.25;5079324;28;19931;-65
2023/04/27 13:25:33;;;;;;;;;;;;;;;15.79;32.03;98093.19;5087662;28;20427;-67
2023/04/27 13:28:21;;;;;;;;;;;;;;;15.74;32.47;98101.63;5081451;28;19920;-64
2023/04/27 13:31:09;;;;;;;;;;;;;;;15.71;32.30;98092.16;5078483;28;20423;-65
2023/04/27 13:34:00;;;;;;;;;;;;;;;15.88;32.91;98093.91;5080553;28;19965;-67
2023/04/27 13:36:48;;;;;;;;;;;;;;;15.89;33.28;98087.28;5073746;28;20008;-65
2023/04/27 13:39:39;;;;;;;;;;;;;;;15.69;32.61;98088.97;5070520;28;19935;-67
2023/04/27 13:42:28;;;;;;;;;;;;;;;15.53;32.61;98079.78;5082351;28;20018;-67
2023/04/27 13:45:17;;;;;;;;;;;;;;;15.38;32.71;98083.16;5072609;28;20017;-65
2023/04/27 13:48:06;;;;;;;;;;;;;;;15.33;33.25;98081.44;5058627;28;20109;-67
2023/04/27 13:50:56;;;;;;;;;;;;;;;15.47;34.02;98064.72;5068154;28;19941;-65
2023/04/27 13:53:45;;;;;;;;;;;;;;;15.62;32.70;98066.78;5088366;28;19941;-65
2023/04/27 13:56:37;;;;;;;;;;;;;;;15.77;33.15;98067.28;5078266;28;19943;-64
2023/04/27 13:59:30;;;;;;;;;;;;;;;15.56;32.27;98046.25;5071308;28;19932;-68
2023/04/27 14:02:19;;;;;;;;;;;;;;;15.56;33.62;98068.16;5073658;28;20019;-68
2023/04/27 14:05:08;;;;;;;;;;;;;;;15.54;33.16;98059.47;5079028;28;19939;-65
2023/04/27 14:07:58;;;;;;;;;;;;;;;15.67;32.85;98060.31;5081336;28;19924;-65
2023/04/27 14:10:46;;;;;;;;;;;;;;;15.83;32.29;98054.97;5085994;28;19980;-65
2023/04/27 14:13:35;;;;;;;;;;;;;;;16.03;33.01;98053.22;5081098;28;19920;-65
2023/04/27 14:16:25;;;;;;;;;;;;;;;15.99;32.47;98053.16;5071878;28;20432;-64
2023/04/27 14:19:14;;;;;;;;;;;;;;;16.03;32.22;98051.28;5077979;28;19941;-65
2023/04/27 14:22:03;;;;;;;;;;;;;;;16.04;32.04;98050.16;5082842;28;19938;-65
2023/04/27 14:24:55;;;;;;;;;;;;;;;15.87;32.58;98051.22;5074918;28;19934;-66
2023/04/27 14:27:43;;;;;;;;;;;;;;;15.85;33.02;98052.69;5082816;28;20396;-65
2023/04/27 14:30:32;;;;;;;;;;;;;;;15.73;33.04;98055.41;5081294;28;19938;-64
2023/04/27 14:33:22;;;;;;;;;;;;;;;15.60;33.06;98055.34;5080451;28;20025;-67
2023/04/27 14:36:11;;;;;;;;;;;;;;;15.51;33.48;98051.16;5079884;28;19949;-64
2023/04/27 14:39:00;;;;;;;;;;;;;;;15.49;33.36;98050.66;5078813;28;19938;-67
2023/04/27 14:41:50;;;;;;;;;;;;;;;15.42;33.37;98056.72;5081222;28;19942;-62
2023/04/27 14:44:39;;;;;;;;;;;;;;;15.33;33.36;98047.78;5072113;28;20037;-65
2023/04/27 14:47:27;;;;;;;;;;;;;;;15.31;33.77;98045.41;5077592;28;20047;-63